Flight Track Log - Related Links

Times and Time Zones

All times are in EDT time to prevent confusion due to time zone crossing. See the UAL1177 flight status page for this flight to view local times or setup timezone preferences in your user account.

Time Position Orientation Groundspeed Altitude Reporting Facility
EDT Latitude Longitude Course Direction KTS MPH feet Rate Location/Type
Fri 03:27:22 PM 26.0750 -80.1344 336° Northwest 172 198 800  Level Miami Center
Fri 03:28:17 PM 26.0783 -80.0789 86° East 225 259 2,200 1,241 Climbing Miami Center
Fri 03:29:18 PM 26.0864 -79.9981 84° East 267 307 3,200 1,820 Climbing Miami Center
Fri 03:30:00 PM 26.1719 -80.5001 293° West  Level FlightAware Approximate
Fri 03:30:19 PM 26.1494 -79.9767 17° North 267 307 5,900  Level Miami Center
Fri 03:31:00 PM 26.2164 -80.6160 293° West  Level FlightAware Approximate
Fri 03:31:21 PM 26.2003 -80.0383 313° West 276 318 8,000  Level Miami Center
Fri 03:31:46 PM 26.2061 -80.0617 286° West 280 322 7,900 885 Descending Miami Center
Fri 03:32:00 PM 26.3193 -80.6680 336° Northwest  Level FlightAware Approximate
Fri 03:32:22 PM 26.2172 -80.1197 282° West 284 327 8,900  Level Miami Center
Fri 03:32:46 PM 26.2272 -80.1456 293° West 285 328 8,900 98 Level Miami Center
Fri 03:33:23 PM 26.2425 -80.2083 285° West 288 331 9,000  Climbing Miami Center
Fri 03:33:46 PM 26.2461 -80.2317 280° West 288 331 8,900 289 Descending Miami Center
Fri 03:34:46 PM 26.2567 -80.3178 278° West 288 331 9,400 1,600 Climbing Miami Center
Fri 03:35:46 PM 26.2711 -80.4131 280° West 288 331 12,100 2,050 Climbing Miami Center
Fri 03:36:46 PM 26.2814 -80.4992 278° West 303 349 13,500 1,750 Climbing Miami Center
Fri 03:37:46 PM 26.3267 -80.6094 295° West 334 384 15,600 1,950 Climbing Miami Center
Fri 03:38:46 PM 26.4042 -80.6861 318° Northwest 356 410 17,400 2,000 Climbing Miami Center
Fri 03:39:46 PM 26.4961 -80.7586 325° Northwest 389 448 19,600 2,150 Climbing Miami Center
Fri 03:40:46 PM 26.5842 -80.8289 324° Northwest 394 453 21,700 1,900 Climbing Miami Center
Fri 03:41:46 PM 26.6758 -80.9064 323° Northwest 406 467 23,400 1,700 Climbing Miami Center
Fri 03:42:46 PM 26.7719 -80.9842 324° Northwest 406 467 25,100 1,500 Climbing Miami Center
Fri 03:43:46 PM 26.8431 -81.0494 321° Northwest 411 473 26,400 1,300 Climbing Miami Center
Fri 03:44:46 PM 26.9469 -81.1347 324° Northwest 411 473 27,700 1,250 Climbing Miami Center
Fri 03:45:46 PM 27.0428 -81.2153 323° Northwest 417 480 28,900 1,500 Climbing Miami Center
Fri 03:46:46 PM 27.1406 -81.2958 324° Northwest 430 495 30,700 1,950 Climbing Miami Center
Fri 03:47:46 PM 27.2444 -81.3817 324° Northwest 430 495 32,800 1,550 Climbing Miami Center
Fri 03:48:46 PM 27.3214 -81.4500 322° Northwest 417 480 33,800 950 Climbing Miami Center
Fri 03:49:46 PM 27.4131 -81.5286 323° Northwest 412 474 34,700 1,000 Climbing Miami Center
Fri 03:50:46 PM 27.5144 -81.6122 324° Northwest 406 467 35,800 650 Climbing Miami Center
Fri 03:51:46 PM 27.6039 -81.6886 323° Northwest 406 467 36,000 65 Climbing Miami Center
Fri 03:53:52 PM 27.7908 -81.8417 324° Northwest 400 460 36,000  Level Jacksonville Center
Fri 03:54:52 PM 27.8728 -81.9136 322° Northwest 405 466 36,000  Level Jacksonville Center
Fri 03:55:52 PM 27.9611 -81.9903 323° Northwest 410 472 36,000  Level Jacksonville Center
Fri 03:56:52 PM 28.0492 -82.0694 322° Northwest 410 472 36,000  Level Jacksonville Center
Fri 03:57:52 PM 28.1331 -82.1511 319° Northwest 400 460 36,000 -50 Level Jacksonville Center
Fri 03:58:52 PM 28.1964 -82.2472 307° West 387 445 35,900  Descending Jacksonville Center
Fri 03:59:52 PM 28.2636 -82.3458 308° West 387 445 36,000 50 Climbing Jacksonville Center
Fri 04:00:52 PM 28.3264 -82.4444 306° West 393 452 36,000  Level Jacksonville Center
Fri 04:01:52 PM 28.3914 -82.5458 306° West 393 452 36,000  Level Jacksonville Center
Fri 04:02:52 PM 28.4586 -82.6422 308° West 393 452 36,000  Level Jacksonville Center
Fri 04:03:52 PM 28.5256 -82.7436 307° West 398 458 36,000  Level Jacksonville Center
Fri 04:04:52 PM 28.5903 -82.8475 305° West 398 458 36,000  Level Jacksonville Center
Fri 04:05:52 PM 28.6611 -82.9542 307° West 403 464 36,000 -50 Level Jacksonville Center
Fri 04:06:52 PM 28.7278 -83.0558 307° West 403 464 35,900 -50 Descending Jacksonville Center
Fri 04:07:52 PM 28.7944 -83.1581 307° West 403 464 35,900 50 Level Jacksonville Center
Fri 04:08:52 PM 28.8589 -83.2578 306° West 403 464 36,000 50 Climbing Jacksonville Center
Fri 04:09:52 PM 28.9253 -83.3622 306° West 403 464 36,000  Level Jacksonville Center
Fri 04:10:52 PM 28.9917 -83.4669 306° West 403 464 36,000  Level Jacksonville Center
Fri 04:11:52 PM 29.0581 -83.5694 307° West 403 464 36,000  Level Jacksonville Center
Fri 04:12:52 PM 29.1222 -83.6675 307° West 403 464 36,000 -50 Level Jacksonville Center
Fri 04:13:52 PM 29.1906 -83.7728 307° West 403 464 35,900  Descending Jacksonville Center
Fri 04:14:52 PM 29.2544 -83.8756 305° West 403 464 36,000 50 Climbing Jacksonville Center
Fri 04:15:52 PM 29.3203 -83.9786 306° West 403 464 36,000  Level Jacksonville Center
Fri 04:16:52 PM 29.3861 -84.0842 306° West 403 464 36,000  Level Jacksonville Center
Fri 04:17:52 PM 29.4500 -84.1853 306° West 403 464 36,000  Level Jacksonville Center
Fri 04:18:52 PM 29.5156 -84.2886 306° West 403 464 36,000  Level Jacksonville Center
Fri 04:19:52 PM 29.5833 -84.3900 308° West 403 464 36,000  Level Jacksonville Center
Fri 04:20:52 PM 29.6489 -84.4914 307° West 403 464 36,000  Level Jacksonville Center
Fri 04:21:52 PM 29.7144 -84.5975 305° West 403 464 36,000  Level Jacksonville Center
Fri 04:22:52 PM 29.7797 -84.7039 305° West 403 464 36,000  Level Jacksonville Center
Fri 04:23:52 PM 29.8450 -84.8106 305° West 403 464 36,000  Level Jacksonville Center
Fri 04:24:52 PM 29.9103 -84.9150 306° West 403 464 36,000  Level Jacksonville Center
Fri 04:25:52 PM 29.9772 -85.0219 306° West 403 464 36,000  Level Jacksonville Center
Fri 04:26:52 PM 30.0383 -85.1192 306° West 408 470 36,000 500 Level Jacksonville Center
Fri 04:27:52 PM 30.1033 -85.2239 306° West 408 470 37,000 900 Climbing Jacksonville Center
Fri 04:28:52 PM 30.1661 -85.3239 306° West 403 464 37,800 500 Climbing Jacksonville Center
Fri 04:29:52 PM 30.2286 -85.4361 303° West 403 464 38,000 100 Climbing Jacksonville Center
Fri 04:30:52 PM 30.2975 -85.5367 308° West 403 464 38,000  Level Jacksonville Center
Fri 04:31:52 PM 30.3622 -85.6442 305° West 403 464 38,000 -50 Level Jacksonville Center
Fri 04:32:52 PM 30.4244 -85.7472 305° West 403 464 37,900  Descending Jacksonville Center
Fri 04:33:52 PM 30.4908 -85.8575 305° West 403 464 38,000 50 Climbing Jacksonville Center
Fri 04:34:52 PM 30.5553 -85.9633 305° West 403 464 38,000  Level Jacksonville Center
Fri 04:35:52 PM 30.6194 -86.0692 305° West 403 464 38,000  Level Jacksonville Center
Fri 04:36:52 PM 30.6856 -86.1800 305° West 403 464 38,000 -50 Level Jacksonville Center
Fri 04:37:52 PM 30.7494 -86.2886 304° West 409 471 37,900  Descending Jacksonville Center
Fri 04:38:52 PM 30.8156 -86.3925 307° West 409 471 38,000 50 Climbing Jacksonville Center
Fri 04:39:52 PM 30.8792 -86.5039 304° West 403 464 38,000  Level Jacksonville Center
Fri 04:40:52 PM 30.9450 -86.6081 306° West 403 464 38,000  Level Jacksonville Center
Fri 04:41:52 PM 31.0167 -86.7297 305° West 410 472 38,000  Level Jacksonville Center
Fri 04:43:44 PM 31.1369 -86.9281 305° West 394 453 38,000  Level Atlanta Center
Fri 04:44:44 PM 31.1992 -87.0344 304° West 394 453 38,000  Level Atlanta Center
Fri 04:45:44 PM 31.2631 -87.1433 304° West 400 460 38,000  Level Atlanta Center
Fri 04:46:44 PM 31.3250 -87.2522 304° West 405 466 38,000  Level Atlanta Center
Fri 04:47:44 PM 31.3831 -87.3517 304° West 410 472 38,000  Level Atlanta Center
Fri 04:48:44 PM 31.4467 -87.4611 304° West 410 472 38,000  Level Atlanta Center
Fri 04:49:44 PM 31.5106 -87.5706 304° West 405 466 38,000  Level Atlanta Center
Fri 04:50:44 PM 31.5742 -87.6781 305° West 405 466 38,000  Level Atlanta Center
Fri 04:51:44 PM 31.6375 -87.7903 304° West 405 466 38,000  Level Atlanta Center
Fri 04:52:44 PM 31.7008 -87.9003 304° West 405 466 38,000  Level Atlanta Center
Fri 04:55:08 PM 31.8508 -88.1661 304° West 412 474 38,000  Level Memphis Center
Fri 04:56:08 PM 31.9156 -88.2797 304° West 412 474 38,000  Level Memphis Center
Fri 04:57:08 PM 31.9800 -88.3858 306° West 412 474 38,000  Level Memphis Center
Fri 04:58:08 PM 32.0442 -88.4972 304° West 412 474 38,000  Level Memphis Center
Fri 04:59:08 PM 32.1042 -88.6064 303° West 412 474 38,000  Level Memphis Center
Fri 05:00:08 PM 32.1664 -88.7181 303° West 412 474 38,000  Level Memphis Center
Fri 05:01:08 PM 32.2283 -88.8297 303° West 412 474 38,000  Level Memphis Center
Fri 05:02:08 PM 32.2922 -88.9417 304° West 412 474 38,000  Level Memphis Center
Fri 05:03:08 PM 32.3561 -89.0539 304° West 412 474 38,000  Level Memphis Center
Fri 05:04:08 PM 32.4178 -89.1686 303° West 412 474 38,000  Level Memphis Center
Fri 05:05:08 PM 32.4836 -89.2836 304° West 412 474 38,000  Level Memphis Center
Fri 05:06:08 PM 32.5450 -89.3961 303° West 412 474 38,000  Level Memphis Center
Fri 05:07:08 PM 32.6083 -89.5114 303° West 412 474 38,000  Level Memphis Center
Fri 05:08:08 PM 32.6697 -89.6244 303° West 412 474 38,000  Level Memphis Center
Fri 05:09:08 PM 32.7331 -89.7400 303° West 412 474 38,000  Level Memphis Center
Fri 05:10:08 PM 32.7942 -89.8556 302° West 412 474 38,000  Level Memphis Center
Fri 05:11:08 PM 32.8614 -89.9739 304° West 418 481 38,000  Level Memphis Center
Fri 05:12:08 PM 32.9242 -90.0925 302° West 424 488 38,000  Level Memphis Center
Fri 05:13:08 PM 32.9892 -90.2111 303° West 424 488 38,000  Level Memphis Center
Fri 05:14:08 PM 33.0539 -90.3250 304° West 424 488 38,000  Level Memphis Center
Fri 05:15:08 PM 33.1144 -90.4417 302° West 424 488 38,000  Level Memphis Center
Fri 05:16:08 PM 33.1792 -90.5608 303° West 424 488 38,000  Level Memphis Center
Fri 05:17:08 PM 33.2414 -90.6778 302° West 424 488 38,000  Level Memphis Center
Fri 05:18:08 PM 33.3036 -90.7922 303° West 424 488 38,000  Level Memphis Center
Fri 05:19:08 PM 33.3658 -90.9094 302° West 424 488 38,000  Level Memphis Center
Fri 05:20:08 PM 33.4281 -91.0292 302° West 424 488 38,000  Level Memphis Center
Fri 05:21:08 PM 33.4919 -91.1494 303° West 429 494 38,000  Level Memphis Center
Fri 05:22:08 PM 33.5539 -91.2644 303° West 429 494 38,000  Level Memphis Center
Fri 05:23:08 PM 33.6156 -91.3825 302° West 429 494 38,000  Level Memphis Center
Fri 05:24:08 PM 33.6792 -91.5056 302° West 429 494 38,000  Level Memphis Center
Fri 05:25:08 PM 33.7406 -91.6236 302° West 429 494 38,000  Level Memphis Center
Fri 05:26:08 PM 33.8206 -91.7575 306° West 436 502 38,000  Level Memphis Center
Fri 05:27:08 PM 33.8756 -91.8733 300° West 430 495 38,000  Level Memphis Center
Fri 05:28:08 PM 33.9408 -91.9922 304° West 430 495 38,000  Level Memphis Center
Fri 05:29:08 PM 34.0017 -92.1186 300° West 425 489 38,000  Level Memphis Center
Fri 05:30:08 PM 34.0606 -92.2325 302° West 425 489 38,000  Level Memphis Center
Fri 05:31:08 PM 34.1194 -92.3492 301° West 420 483 38,000  Level Memphis Center
Fri 05:32:08 PM 34.1819 -92.4714 302° West 420 483 38,000  Level Memphis Center
Fri 05:33:08 PM 34.2425 -92.5883 302° West 420 483 38,000  Level Memphis Center
Fri 05:34:08 PM 34.3050 -92.7156 301° West 425 489 38,000  Level Memphis Center
Fri 05:35:08 PM 34.3633 -92.8306 302° West 419 482 38,000  Level Memphis Center
Fri 05:36:08 PM 34.4233 -92.9481 302° West 413 475 38,000  Level Memphis Center
Fri 05:37:08 PM 34.4856 -93.0683 302° West 413 475 38,000  Level Memphis Center
Fri 05:38:08 PM 34.5433 -93.1911 300° West 413 475 38,000  Level Memphis Center
Fri 05:39:08 PM 34.6053 -93.3144 301° West 418 481 38,000  Level Memphis Center
Fri 05:40:08 PM 34.6647 -93.4403 300° West 418 481 38,000  Level Memphis Center
Fri 05:41:08 PM 34.7264 -93.5611 302° West 423 487 38,000  Level Memphis Center
Fri 05:42:08 PM 34.7858 -93.6797 301° West 423 487 38,000  Level Memphis Center
Fri 05:43:08 PM 34.8472 -93.8036 301° West 423 487 38,000  Level Memphis Center
Fri 05:44:08 PM 34.9044 -93.9225 300° West 417 480 38,000  Level Memphis Center
Fri 05:45:08 PM 34.9633 -94.0414 301° West 417 480 38,000  Level Memphis Center
Fri 05:46:08 PM 35.0203 -94.1631 300° West 417 480 38,000  Level Memphis Center
Fri 05:47:08 PM 35.0831 -94.2878 302° West 417 480 38,000  Level Memphis Center
Fri 05:48:08 PM 35.1397 -94.4097 300° West 417 480 38,000  Level Memphis Center
Fri 05:49:08 PM 35.1983 -94.5294 301° West 417 480 38,000  Level Memphis Center
Fri 05:50:10 PM 35.2547 -94.6450 301° West 410 472 38,000  Level Fort Worth Center
Fri 05:51:10 PM 35.3094 -94.7628 300° West 410 472 38,000  Level Fort Worth Center
Fri 05:52:10 PM 35.3661 -94.8831 300° West 410 472 38,000  Level Fort Worth Center
Fri 05:53:10 PM 35.4247 -95.0036 301° West 410 472 38,000  Level Fort Worth Center
Fri 05:54:10 PM 35.4856 -95.1344 300° West 410 472 38,000  Level Fort Worth Center
Fri 05:55:10 PM 35.5442 -95.2553 301° West 410 472 38,000  Level Fort Worth Center
Fri 05:56:10 PM 35.6003 -95.3764 300° West 410 472 38,000  Level Fort Worth Center
Fri 05:56:59 PM 35.6422 -95.4611 301° West 407 468 38,000  Level Kansas City Center
Fri 05:58:01 PM 35.6992 -95.5825 300° West 407 468 38,000  Level Kansas City Center
Fri 05:59:03 PM 35.7547 -95.7033 300° West 405 466 38,000  Level Kansas City Center
Fri 06:00:05 PM 35.8125 -95.8272 300° West 410 472 38,000  Level Kansas City Center
Fri 06:01:07 PM 35.8686 -95.9508 299° West 412 474 38,000  Level Kansas City Center
Fri 06:02:09 PM 35.9372 -96.0992 300° West 413 475 38,000  Level Kansas City Center
Fri 06:03:11 PM 35.9942 -96.2233 300° West 413 475 38,000  Level Kansas City Center
Fri 06:04:13 PM 36.0519 -96.3475 300° West 415 478 38,000  Level Kansas City Center
Fri 06:05:15 PM 36.1092 -96.4706 300° West 413 475 38,000  Level Kansas City Center
Fri 06:06:17 PM 36.1642 -96.5936 299° West 410 472 38,000  Level Kansas City Center
Fri 06:07:19 PM 36.2194 -96.7169 299° West 408 470 38,000  Level Kansas City Center
Fri 06:08:21 PM 36.2769 -96.8428 300° West 409 471 38,000  Level Kansas City Center
Fri 06:09:23 PM 36.3311 -96.9636 299° West 405 466 38,000  Level Kansas City Center
Fri 06:10:25 PM 36.3961 -97.1114 299° West 407 468 38,000  Level Kansas City Center
Fri 06:11:27 PM 36.4511 -97.2317 300° West 406 467 38,000  Level Kansas City Center
Fri 06:12:29 PM 36.5056 -97.3525 299° West 404 465 38,000  Level Kansas City Center
Fri 06:13:31 PM 36.5597 -97.4783 298° West 408 470 38,000  Level Kansas City Center
Fri 06:14:33 PM 36.6144 -97.6069 298° West 412 474 38,000  Level Kansas City Center
Fri 06:15:36 PM 36.6686 -97.7300 299° West 411 473 38,000  Level Kansas City Center
Fri 06:16:38 PM 36.7328 -97.8775 299° West 407 468 38,000  Level Kansas City Center
Fri 06:17:40 PM 36.7883 -98.0058 298° West 412 474 38,000  Level Kansas City Center
Fri 06:18:42 PM 36.8439 -98.1344 298° West 415 478 38,000  Level Kansas City Center
Fri 06:19:44 PM 36.8992 -98.2614 299° West 414 476 38,000  Level Kansas City Center
Fri 06:20:46 PM 36.9536 -98.3900 298° West 418 481 38,000  Level Kansas City Center
Fri 06:21:48 PM 37.0069 -98.5142 298° West 416 479 38,000  Level Kansas City Center
Fri 06:22:50 PM 37.0725 -98.6672 298° West 415 478 38,000  Level Kansas City Center
Fri 06:23:52 PM 37.1156 -98.7711 297° West 410 472 38,000  Level Kansas City Center
Fri 06:24:54 PM 37.1808 -98.9239 298° West 412 474 38,000  Level Kansas City Center
Fri 06:25:56 PM 37.2342 -99.0517 298° West 412 474 38,000  Level Kansas City Center
Fri 06:26:58 PM 37.2858 -99.1747 298° West 413 475 38,000  Level Kansas City Center
Fri 06:28:00 PM 37.3408 -99.3083 297° West 413 475 38,000  Level Kansas City Center
Fri 06:29:02 PM 37.3942 -99.4353 298° West 411 473 38,000  Level Kansas City Center
Fri 06:30:04 PM 37.4519 -99.5725 298° West 410 472 38,000  Level Kansas City Center
Fri 06:31:06 PM 37.5092 -99.7153 297° West 410 472 38,000  Level Kansas City Center
Fri 06:32:08 PM 37.5594 -99.8372 298° West 411 473 38,000  Level Kansas City Center
Fri 06:33:10 PM 37.6181 -99.9828 297° West 414 476 38,000  Level Kansas City Center
Fri 06:34:12 PM 37.6703 -100.1069 298° West 419 482 38,000  Level Kansas City Center
Fri 06:35:14 PM 37.7289 -100.2519 297° West 417 480 38,000  Level Kansas City Center
Fri 06:36:16 PM 37.7803 -100.3772 297° West 420 483 38,000  Level Kansas City Center
Fri 06:37:18 PM 37.8392 -100.5239 297° West 423 487 38,000  Level Kansas City Center
Fri 06:38:20 PM 37.8883 -100.6469 297° West 416 479 38,000  Level Kansas City Center
Fri 06:39:22 PM 37.9456 -100.7903 297° West 413 475 38,000  Level Kansas City Center
Fri 06:40:24 PM 37.9917 -100.9117 296° West 406 467 38,000  Level Kansas City Center
Fri 06:40:59 PM 38.0222 -100.9936 295° West 406 467 38,000  Level Denver Center
Fri 06:42:01 PM 38.0689 -101.1150 296° West 403 464 38,000  Level Denver Center
Fri 06:43:03 PM 38.1231 -101.2583 296° West 404 465 38,000  Level Denver Center
Fri 06:44:05 PM 38.1697 -101.3806 296° West 404 465 38,000  Level Denver Center
Fri 06:45:07 PM 38.2314 -101.5200 299° West 408 470 38,000  Level Denver Center
Fri 06:46:09 PM 38.2897 -101.6383 302° West 412 474 38,000  Level Denver Center
Fri 06:47:11 PM 38.3586 -101.7744 303° West 412 474 38,000 -98 Level Denver Center
Fri 06:48:12 PM 38.4167 -101.8933 302° West 413 475 37,800 -488 Descending Denver Center
Fri 06:49:14 PM 38.4656 -101.9911 303° West 411 473 37,000 -968 Descending Denver Center
Fri 06:50:16 PM 38.5431 -102.1492 302° West 413 475 35,800 -1,065 Descending Denver Center
Fri 06:51:18 PM 38.6122 -102.2914 302° West 419 482 34,800 -871 Descending Denver Center
Fri 06:52:20 PM 38.6619 -102.3939 302° West 423 487 34,000 -968 Descending Denver Center
Fri 06:53:22 PM 38.7422 -102.5589 302° West 427 491 32,800 -968 Descending Denver Center
Fri 06:54:24 PM 38.8050 -102.6833 303° West 431 496 32,000 -387 Descending Denver Center
Fri 06:55:26 PM 38.8731 -102.8292 301° West 429 494 32,000  Level Denver Center
Fri 06:56:28 PM 38.9328 -102.9542 302° West 429 494 32,000  Level Denver Center
Fri 06:57:30 PM 38.9933 -103.0814 302° West 431 496 32,000  Level Denver Center
Fri 06:58:32 PM 39.0639 -103.2294 302° West 433 498 32,000 -823 Level Denver Center
Fri 06:59:34 PM 39.1244 -103.3575 301° West 436 502 30,300 -2,143 Descending Denver Center
Fri 07:00:38 PM 39.1936 -103.5044 301° West 434 499 27,500 -2,476 Descending Denver Center
Fri 07:01:40 PM 39.2603 -103.6472 301° West 421 484 25,100 -2,177 Descending Denver Center
Fri 07:02:42 PM 39.3147 -103.7636 301° West 405 466 23,000 -1,694 Descending Denver Center
Fri 07:03:44 PM 39.3750 -103.8931 301° West 385 443 21,600 -1,258 Descending Denver Center
Fri 07:04:46 PM 39.4269 -103.9958 303° West 351 404 20,400 -1,210 Descending Denver Center
Fri 07:05:48 PM 39.4769 -104.0736 310° West 334 384 19,100 -1,645 Descending Denver Center
Fri 07:06:50 PM 39.5436 -104.1844 308° West 318 366 17,000 -968 Descending Denver Center
Fri 07:07:52 PM 39.5950 -104.2697 308° West 302 348 17,100 -387 Climbing Denver Center
Fri 07:08:54 PM 39.6453 -104.3553 307° West 298 343 16,200 -919 Descending Denver Center
Fri 07:09:56 PM 39.6997 -104.4442 309° West 294 338 15,200 -1,065 Descending Denver Center
Fri 07:10:58 PM 39.7464 -104.5342 304° West 300 345 14,000 -1,016 Descending Denver Center
Fri 07:12:00 PM 39.7506 -104.6458 273° West 288 331 13,100 -823 Descending Denver Center
Fri 07:13:02 PM 39.7544 -104.7406 273° West 262 302 12,300 -871 Descending Denver Center
Fri 07:14:04 PM 39.7581 -104.8247 273° West 236 272 11,300 -1,065 Descending Denver Center
Fri 07:15:06 PM 39.7719 -104.9072 282° West 230 265 10,100 -1,161 Descending Denver Center

Login

Don't have an account? Register now (free) for customized features, flight alerts, and more!